createdAt,value
2018-09-10T00:00:41.263Z,1003.93
2018-09-10T00:01:41.257Z,1003.93
2018-09-10T00:02:41.250Z,1003.92
2018-09-10T00:03:41.248Z,1003.86
2018-09-10T00:04:41.238Z,1003.89
2018-09-10T00:05:41.232Z,1003.90
2018-09-10T00:06:41.226Z,1003.91
2018-09-10T00:07:41.220Z,1003.95
2018-09-10T00:08:41.214Z,1003.93
2018-09-10T00:09:41.209Z,1003.91
2018-09-10T00:10:41.201Z,1003.90
2018-09-10T00:11:41.197Z,1003.89
2018-09-10T00:12:41.188Z,1003.87
2018-09-10T00:13:41.184Z,1003.89
2018-09-10T00:14:41.177Z,1003.91
2018-09-10T00:15:41.170Z,1003.90
2018-09-10T00:16:41.169Z,1003.86
2018-09-10T00:17:41.164Z,1003.84
2018-09-10T00:18:41.151Z,1003.84
2018-09-10T00:19:41.146Z,1003.85
2018-09-10T00:20:41.141Z,1003.88
2018-09-10T00:21:41.134Z,1003.85
2018-09-10T00:22:41.128Z,1003.84
2018-09-10T00:23:41.122Z,1003.82
2018-09-10T00:24:41.117Z,1003.83
2018-09-10T00:25:41.312Z,1003.84
2018-09-10T00:26:41.103Z,1003.87
2018-09-10T00:27:41.347Z,1003.86
2018-09-10T00:28:41.093Z,1003.86
2018-09-10T00:29:41.086Z,1003.88
2018-09-10T00:30:41.081Z,1003.85
2018-09-10T00:31:41.074Z,1003.83
2018-09-10T00:32:41.068Z,1003.83
2018-09-10T00:33:41.062Z,1003.83
2018-09-10T00:34:41.054Z,1003.83
2018-09-10T00:35:41.050Z,1003.87
2018-09-10T00:36:41.047Z,1003.80
2018-09-10T00:37:41.040Z,1003.85
2018-09-10T00:38:41.031Z,1003.87
2018-09-10T00:39:41.024Z,1003.89
2018-09-10T00:40:41.019Z,1003.90
2018-09-10T00:41:41.013Z,1003.92
2018-09-10T00:42:41.005Z,1003.93
2018-09-10T00:43:40.998Z,1003.90
2018-09-10T00:44:40.994Z,1003.90
2018-09-10T00:45:40.989Z,1003.96
2018-09-10T00:46:40.981Z,1003.93
2018-09-10T00:47:40.975Z,1003.95
2018-09-10T00:48:40.972Z,1003.94
2018-09-10T00:49:40.963Z,1003.97
2018-09-10T00:50:40.960Z,1004.01
2018-09-10T00:51:40.951Z,1004.50
2018-09-10T00:52:40.945Z,1004.61
2018-09-10T00:53:40.940Z,1004.59
2018-09-10T00:54:40.933Z,1004.46
2018-09-10T00:55:40.927Z,1004.56
2018-09-10T00:56:40.920Z,1004.56
2018-09-10T00:57:40.915Z,1004.57
2018-09-10T00:58:40.909Z,1004.58
2018-09-10T00:59:40.900Z,1004.67
2018-09-10T01:00:40.895Z,1004.67
2018-09-10T01:01:40.894Z,1004.57
2018-09-10T01:02:40.885Z,1004.64
2018-09-10T01:03:40.876Z,1004.64
2018-09-10T01:04:40.869Z,1004.63
2018-09-10T01:05:40.864Z,1004.50
2018-09-10T01:06:40.857Z,1004.53
2018-09-10T01:07:40.851Z,1004.48
2018-09-10T01:08:40.846Z,1004.58
2018-09-10T01:09:40.840Z,1004.58
2018-09-10T01:10:40.832Z,1004.56
2018-09-10T01:11:40.826Z,1004.58
2018-09-10T01:12:40.820Z,1004.63
2018-09-10T01:13:40.814Z,1004.56
2018-09-10T01:14:40.808Z,1004.51
2018-09-10T01:15:40.801Z,1004.53
2018-09-10T01:16:40.796Z,1004.53
2018-09-10T01:17:40.790Z,1004.51
2018-09-10T01:18:40.787Z,1004.54
2018-09-10T01:19:40.778Z,1004.53
2018-09-10T01:20:40.772Z,1004.55
2018-09-10T01:21:40.766Z,1004.55
2018-09-10T01:22:40.760Z,1004.58
2018-09-10T01:23:40.757Z,1004.54
2018-09-10T01:24:40.749Z,1004.55
2018-09-10T01:25:40.744Z,1004.54
2018-09-10T01:26:40.737Z,1004.53
2018-09-10T01:27:40.730Z,1004.51
2018-09-10T01:28:40.726Z,1004.51
2018-09-10T01:29:40.721Z,1004.50
2018-09-10T01:30:40.717Z,1004.48
2018-09-10T01:31:40.709Z,1004.50
2018-09-10T01:32:40.704Z,1004.60
2018-09-10T01:33:40.700Z,1004.54
2018-09-10T01:34:40.692Z,1004.57
2018-09-10T01:35:40.688Z,1004.54
2018-09-10T01:36:40.681Z,1004.60
2018-09-10T01:37:40.679Z,1004.56
2018-09-10T01:38:40.670Z,1004.57
2018-09-10T01:39:40.664Z,1004.61
2018-09-10T01:40:40.659Z,1004.60
2018-09-10T01:41:40.653Z,1004.59
2018-09-10T01:42:40.647Z,1004.65
2018-09-10T01:43:40.641Z,1004.64
2018-09-10T01:44:40.636Z,1004.69
2018-09-10T01:45:40.630Z,1004.61
2018-09-10T01:46:40.626Z,1004.65
2018-09-10T01:47:40.618Z,1004.65
2018-09-10T01:48:40.614Z,1004.62
2018-09-10T01:49:40.608Z,1004.67
2018-09-10T01:50:40.602Z,1004.66
2018-09-10T01:51:40.596Z,1004.66
2018-09-10T01:52:40.590Z,1004.61
2018-09-10T01:53:40.585Z,1004.61
2018-09-10T01:54:40.578Z,1004.58
2018-09-10T01:55:40.574Z,1004.58
2018-09-10T01:56:40.568Z,1004.58
2018-09-10T01:57:40.562Z,1004.61
2018-09-10T01:58:40.559Z,1004.64
2018-09-10T01:59:40.550Z,1004.69
2018-09-10T02:00:40.545Z,1004.66
2018-09-10T02:01:40.540Z,1004.61
2018-09-10T02:02:40.533Z,1004.61
2018-09-10T02:03:40.534Z,1004.54
2018-09-10T02:04:40.522Z,1004.62
2018-09-10T02:05:40.516Z,1004.59
2018-09-10T02:06:40.510Z,1004.59
2018-09-10T02:07:40.504Z,1004.63
2018-09-10T02:08:40.499Z,1004.64
2018-09-10T02:09:40.497Z,1004.67
2018-09-10T02:10:40.486Z,1004.70
2018-09-10T02:11:40.481Z,1004.70
2018-09-10T02:12:40.475Z,1004.75
2018-09-10T02:13:40.471Z,1004.78
2018-09-10T02:14:40.462Z,1004.78
2018-09-10T02:15:40.460Z,1004.79
2018-09-10T02:16:40.453Z,1004.78
2018-09-10T02:17:40.448Z,1004.78
2018-09-10T02:18:40.440Z,1004.77
2018-09-10T02:19:40.434Z,1004.77
2018-09-10T02:20:40.429Z,1004.73
2018-09-10T02:21:40.423Z,1004.69
2018-09-10T02:22:40.417Z,1004.69
2018-09-10T02:23:40.483Z,1004.71
2018-09-10T02:24:40.405Z,1004.69
2018-09-10T02:25:40.401Z,1004.65
2018-09-10T02:26:40.395Z,1004.65
2018-09-10T02:27:40.421Z,1004.68
2018-09-10T02:28:40.381Z,1004.67
2018-09-10T02:29:40.376Z,1004.62
2018-09-10T02:30:40.373Z,1004.64
2018-09-10T02:31:40.365Z,1004.62
2018-09-10T02:32:40.359Z,1004.68
2018-09-10T02:33:40.353Z,1004.72
2018-09-10T02:34:40.346Z,1004.75
2018-09-10T02:35:40.340Z,1004.74
2018-09-10T02:36:40.336Z,1004.74
2018-09-10T02:37:40.532Z,1004.73
2018-09-10T02:38:40.396Z,1004.71
2018-09-10T02:39:40.316Z,1004.68
2018-09-10T02:40:40.311Z,1004.68
2018-09-10T02:41:40.306Z,1004.70
2018-09-10T02:42:40.299Z,1004.71
2018-09-10T02:43:40.293Z,1004.71
2018-09-10T02:44:40.293Z,1004.69
2018-09-10T02:45:40.282Z,1004.70
2018-09-10T02:46:40.275Z,1004.67
2018-09-10T02:47:40.269Z,1004.66
2018-09-10T02:48:40.263Z,1004.68
2018-09-10T02:49:40.257Z,1004.68
2018-09-10T02:50:40.252Z,1004.68
2018-09-10T02:51:40.245Z,1004.72
2018-09-10T02:52:40.239Z,1004.70
2018-09-10T02:53:40.233Z,1004.70
2018-09-10T02:54:40.229Z,1004.68
2018-09-10T02:55:40.221Z,1004.75
2018-09-10T02:56:40.215Z,1004.77
2018-09-10T02:57:40.210Z,1004.78
2018-09-10T02:58:40.204Z,1004.81
2018-09-10T02:59:40.201Z,1004.81
2018-09-10T03:00:40.193Z,1004.89
2018-09-10T03:01:40.186Z,1004.92
2018-09-10T03:02:40.179Z,1004.90
2018-09-10T03:03:40.174Z,1004.91
2018-09-10T03:04:40.168Z,1004.90
2018-09-10T03:05:40.161Z,1004.90
2018-09-10T03:06:40.155Z,1004.92
2018-09-10T03:07:40.149Z,1004.89
2018-09-10T03:08:40.145Z,1004.94
2018-09-10T03:09:40.139Z,1004.92
2018-09-10T03:10:40.131Z,1004.95
2018-09-10T03:11:40.127Z,1004.99
2018-09-10T03:12:40.120Z,1004.97
2018-09-10T03:13:40.113Z,1004.93
2018-09-10T03:14:40.109Z,1004.95
2018-09-10T03:15:40.101Z,1004.94
2018-09-10T03:16:40.096Z,1004.96
2018-09-10T03:17:40.091Z,1004.94
2018-09-10T03:18:40.086Z,1004.92
2018-09-10T03:19:40.078Z,1004.93
2018-09-10T03:20:40.072Z,1004.93
2018-09-10T03:21:40.067Z,1005.01
2018-09-10T03:22:40.060Z,1004.98
2018-09-10T03:23:40.054Z,1005.02
2018-09-10T03:24:40.049Z,1005.03
2018-09-10T03:25:40.041Z,1005.00
2018-09-10T03:26:40.040Z,1004.98
2018-09-10T03:27:40.029Z,1005.00
2018-09-10T03:28:40.025Z,1004.98
2018-09-10T03:29:40.018Z,1004.93
2018-09-10T03:30:40.260Z,1004.91
2018-09-10T03:31:40.010Z,1004.93
2018-09-10T03:32:40.000Z,1004.90
2018-09-10T03:33:40.028Z,1004.91
2018-09-10T03:34:39.987Z,1004.91
2018-09-10T03:35:39.981Z,1004.97
2018-09-10T03:36:39.975Z,1004.94
2018-09-10T03:37:39.970Z,1004.96
2018-09-10T03:38:39.964Z,1004.95
2018-09-10T03:39:39.956Z,1004.96
2018-09-10T03:40:39.952Z,1004.94
2018-09-10T03:41:39.948Z,1005.02
2018-09-10T03:42:39.940Z,1004.97
2018-09-10T03:43:39.932Z,1005.00
2018-09-10T03:44:39.928Z,1004.99
2018-09-10T03:45:39.922Z,1005.02
2018-09-10T03:46:40.015Z,1005.03
2018-09-10T03:47:39.909Z,1005.07
2018-09-10T03:48:39.913Z,1005.09
2018-09-10T03:49:39.898Z,1005.11
2018-09-10T03:50:39.893Z,1005.14
2018-09-10T03:51:39.884Z,1005.18
2018-09-10T03:52:39.880Z,1005.20
2018-09-10T03:53:39.889Z,1005.19
2018-09-10T03:54:39.866Z,1005.16
2018-09-10T03:55:39.863Z,1005.14
2018-09-10T03:56:39.855Z,1005.17
2018-09-10T03:57:39.850Z,1005.16
2018-09-10T03:58:39.842Z,1005.14
2018-09-10T03:59:39.837Z,1005.17
2018-09-10T04:00:39.834Z,1005.16
2018-09-10T04:01:39.835Z,1005.17
2018-09-10T04:02:39.819Z,1005.13
2018-09-10T04:03:39.813Z,1005.17
2018-09-10T04:04:39.808Z,1005.19
2018-09-10T04:05:39.802Z,1005.22
2018-09-10T04:06:39.795Z,1005.23
2018-09-10T04:07:39.789Z,1005.24
2018-09-10T04:08:39.784Z,1005.21
2018-09-10T04:09:39.778Z,1005.21
2018-09-10T04:10:39.775Z,1005.16
2018-09-10T04:11:39.765Z,1005.13
2018-09-10T04:12:39.759Z,1005.09
2018-09-10T04:13:39.754Z,1005.09
2018-09-10T04:14:39.748Z,1005.07
2018-09-10T04:15:39.742Z,1005.10
2018-09-10T04:16:39.736Z,1005.12
2018-09-10T04:17:39.731Z,1005.14
2018-09-10T04:18:39.724Z,1005.12
2018-09-10T04:19:39.719Z,1005.14
2018-09-10T04:20:39.713Z,1005.12
2018-09-10T04:21:39.708Z,1005.09
2018-09-10T04:22:39.700Z,1005.09
2018-09-10T04:23:39.694Z,1005.05
2018-09-10T04:24:39.690Z,1005.11
2018-09-10T04:25:39.684Z,1005.12
2018-09-10T04:26:39.677Z,1005.08
2018-09-10T04:27:39.672Z,1005.09
2018-09-10T04:28:39.665Z,1005.12
2018-09-10T04:29:39.658Z,1005.13
2018-09-10T04:30:39.653Z,1005.12
2018-09-10T04:31:39.850Z,1005.13
2018-09-10T04:32:39.640Z,1005.14
2018-09-10T04:33:39.636Z,1005.09
2018-09-10T04:34:39.635Z,1005.12
2018-09-10T04:35:39.624Z,1005.14
2018-09-10T04:36:39.619Z,1005.10
2018-09-10T04:37:39.613Z,1005.08
2018-09-10T04:38:39.607Z,1005.10
2018-09-10T04:39:39.601Z,1005.08
2018-09-10T04:40:39.597Z,1005.10
2018-09-10T04:41:39.590Z,1005.13
2018-09-10T04:42:39.584Z,1005.09
2018-09-10T04:43:39.827Z,1005.14
2018-09-10T04:44:39.574Z,1005.08
2018-09-10T04:45:39.564Z,1005.12
2018-09-10T04:46:39.557Z,1005.15
2018-09-10T04:47:39.553Z,1005.15
2018-09-10T04:48:39.548Z,1005.15
2018-09-10T04:49:39.601Z,1005.17
2018-09-10T04:50:39.534Z,1005.16
2018-09-10T04:51:39.528Z,1005.16
2018-09-10T04:52:39.522Z,1005.15
2018-09-10T04:53:39.517Z,1005.16
2018-09-10T05:16:39.377Z,1005.49
2018-09-10T05:17:39.377Z,1005.50
2018-09-10T05:18:39.363Z,1005.54
2018-09-10T05:19:39.360Z,1005.54
2018-09-10T05:20:39.353Z,1005.55
2018-09-10T05:21:39.351Z,1005.60
2018-09-10T05:22:39.340Z,1005.60
2018-09-10T05:23:39.338Z,1005.59
2018-09-10T05:24:39.328Z,1005.61
2018-09-10T05:25:39.325Z,1005.58
2018-09-10T05:26:39.315Z,1005.60
2018-09-10T05:27:39.310Z,1005.58
2018-09-10T05:28:39.304Z,1005.59
2018-09-10T05:29:39.301Z,1005.60
2018-09-10T05:30:39.292Z,1005.58
2018-09-10T05:31:39.285Z,1005.59
2018-09-10T05:32:39.283Z,1005.62
2018-09-10T05:33:39.477Z,1005.62
2018-09-10T05:34:39.274Z,1005.59
2018-09-10T05:35:39.270Z,1005.63
2018-09-10T05:36:39.256Z,1005.65
2018-09-10T05:37:39.254Z,1005.64
2018-09-10T05:38:39.243Z,1005.67
2018-09-10T05:39:39.239Z,1005.70
2018-09-10T05:40:39.232Z,1005.70
2018-09-10T05:41:39.339Z,1005.69
2018-09-10T05:42:39.221Z,1005.67
2018-09-10T05:43:39.215Z,1005.72
2018-09-10T05:44:39.211Z,1005.72
2018-09-10T05:45:39.203Z,1005.74
2018-09-10T05:46:39.204Z,1005.78
2018-09-10T05:47:39.215Z,1005.81
2018-09-10T05:48:39.187Z,1005.84
2018-09-10T05:49:39.432Z,1005.90
2018-09-10T05:50:39.174Z,1005.95
2018-09-10T05:51:39.168Z,1005.95
2018-09-10T05:52:39.162Z,1005.97
2018-09-10T05:53:39.157Z,1006.01
2018-09-10T05:54:39.154Z,1006.01
2018-09-10T05:55:39.265Z,1006.02
2018-09-10T05:56:39.139Z,1006.01
2018-09-10T05:57:39.134Z,1006.07
2018-09-10T05:58:39.127Z,1006.08
2018-09-10T05:59:39.127Z,1006.13
2018-09-10T06:00:39.116Z,1006.16
2018-09-10T06:01:39.109Z,1006.18
2018-09-10T06:02:39.108Z,1006.14
2018-09-10T06:03:39.097Z,1006.14
2018-09-10T06:04:39.092Z,1006.14
2018-09-10T06:05:39.087Z,1006.14
2018-09-10T06:06:39.083Z,1006.13
2018-09-10T06:07:39.078Z,1006.14
2018-09-10T06:08:39.125Z,1006.14
2018-09-10T06:09:39.063Z,1006.16
2018-09-10T06:10:39.092Z,1006.16
2018-09-10T06:11:39.051Z,1006.17
2018-09-10T06:12:39.046Z,1006.23
2018-09-10T06:13:39.041Z,1006.23
2018-09-10T06:14:39.034Z,1006.23
2018-09-10T06:15:39.033Z,1006.22
2018-09-10T06:16:39.052Z,1006.24
2018-09-10T06:17:39.023Z,1006.20
2018-09-10T06:18:39.017Z,1006.20
2018-09-10T06:19:39.009Z,1006.21
2018-09-10T06:20:39.001Z,1006.25
2018-09-10T06:21:38.996Z,1006.25
2018-09-10T06:22:38.988Z,1006.21
2018-09-10T06:23:38.984Z,1006.20
2018-09-10T06:24:38.979Z,1006.22
2018-09-10T06:25:38.973Z,1006.16
2018-09-10T06:26:38.972Z,1006.12
2018-09-10T06:27:38.963Z,1006.14
2018-09-10T06:28:38.958Z,1006.09
2018-09-10T06:29:38.952Z,1006.06
2018-09-10T06:30:38.950Z,1006.04
2018-09-10T06:31:38.946Z,1006.01
2018-09-10T06:32:38.936Z,1005.97
2018-09-10T06:33:38.933Z,1005.97
2018-09-10T06:34:38.925Z,1005.95
2018-09-10T06:35:39.173Z,1005.99
2018-09-10T06:36:38.914Z,1006.00
2018-09-10T06:37:38.932Z,1005.97
2018-09-10T06:38:39.104Z,1006.01
2018-09-10T06:39:38.898Z,1006.00
2018-09-10T06:40:38.893Z,1006.01
2018-09-10T06:41:38.891Z,1006.02
2018-09-10T06:42:38.880Z,1006.04
2018-09-10T06:43:38.878Z,1006.04
2018-09-10T06:44:38.874Z,1006.07
2018-09-10T06:45:38.866Z,1006.03
2018-09-10T06:46:38.865Z,1006.10
2018-09-10T06:47:38.907Z,1006.09
2018-09-10T06:48:38.850Z,1006.06
2018-09-10T06:49:38.848Z,1006.08
2018-09-10T06:50:38.839Z,1006.11
2018-09-10T06:51:38.836Z,1006.10
2018-09-10T06:52:38.831Z,1006.09
2018-09-10T06:53:38.825Z,1006.13
2018-09-10T06:54:39.022Z,1006.10
2018-09-10T06:55:38.816Z,1006.10
2018-09-10T06:56:38.806Z,1006.10
2018-09-10T06:57:38.805Z,1006.07
2018-09-10T06:58:38.802Z,1006.04
2018-09-10T06:59:38.792Z,1006.12
2018-09-10T07:00:38.789Z,1006.13
2018-09-10T07:01:38.784Z,1006.16
2018-09-10T07:02:38.778Z,1006.13
2018-09-10T07:03:38.773Z,1006.15
2018-09-10T07:04:38.770Z,1006.13
2018-09-10T07:05:38.764Z,1006.14
2018-09-10T07:06:38.757Z,1006.10
2018-09-10T07:07:38.753Z,1006.11
2018-09-10T07:08:38.752Z,1006.06
2018-09-10T07:09:38.744Z,1006.05
2018-09-10T07:10:38.944Z,1006.03
2018-09-10T07:11:38.938Z,1006.06
2018-09-10T07:12:38.761Z,1006.05
2018-09-10T07:13:38.733Z,1006.08
2018-09-10T07:14:38.723Z,1006.04
2018-09-10T07:15:38.714Z,1006.01
2018-09-10T07:16:38.712Z,1005.97
2018-09-10T07:17:38.708Z,1005.99
2018-09-10T07:18:38.712Z,1005.97
2018-09-10T07:19:38.699Z,1006.00
2018-09-10T07:20:38.695Z,1006.04
2018-09-10T07:21:38.689Z,1006.11
2018-09-10T07:22:38.680Z,1006.13
2018-09-10T07:23:38.676Z,1006.23
2018-09-10T07:24:38.673Z,1006.26
2018-09-10T07:25:38.671Z,1006.25
2018-09-10T07:26:38.677Z,1006.31
2018-09-10T07:27:38.663Z,1006.30
2018-09-10T07:28:38.656Z,1006.34
2018-09-10T07:29:38.651Z,1006.36
2018-09-10T07:30:38.646Z,1006.33
2018-09-10T07:31:38.642Z,1006.32
2018-09-10T07:32:38.638Z,1006.27
2018-09-10T07:33:38.637Z,1006.29
2018-09-10T07:34:38.652Z,1006.29
2018-09-10T07:35:38.625Z,1006.30
2018-09-10T07:36:38.623Z,1006.30
2018-09-10T07:37:38.617Z,1006.33
2018-09-10T07:38:38.612Z,1006.30
2018-09-10T07:39:38.611Z,1006.28
2018-09-10T07:40:38.603Z,1006.25
2018-09-10T07:41:38.600Z,1006.22
2018-09-10T07:42:38.596Z,1006.27
2018-09-10T07:43:38.647Z,1006.25
2018-09-10T07:44:38.593Z,1006.24
2018-09-10T07:45:38.590Z,1006.28
2018-09-10T07:46:38.580Z,1006.22
2018-09-10T07:47:38.578Z,1006.25
2018-09-10T07:48:38.575Z,1006.22
2018-09-10T07:49:38.571Z,1006.23
2018-09-10T07:50:38.567Z,1006.21
2018-09-10T07:51:38.563Z,1006.20
2018-09-10T07:52:38.560Z,1006.16
2018-09-10T07:53:38.554Z,1006.18
2018-09-10T07:54:38.610Z,1006.17
2018-09-10T07:55:38.544Z,1006.14
2018-09-10T07:56:38.539Z,1006.10
2018-09-10T07:57:38.533Z,1006.11
2018-09-10T07:58:38.533Z,1006.05
2018-09-10T07:59:38.525Z,1006.01
2018-09-10T08:00:38.543Z,1006.05
2018-09-10T08:01:38.516Z,1006.04
2018-09-10T08:02:38.513Z,1006.08
2018-09-10T08:03:38.509Z,1006.12
2018-09-10T08:04:38.509Z,1006.15
2018-09-10T08:05:38.502Z,1006.17
2018-09-10T08:06:38.500Z,1006.22
2018-09-10T08:07:38.499Z,1006.12
2018-09-10T08:08:38.492Z,1006.13
2018-09-10T08:09:38.559Z,1006.13
2018-09-10T08:10:38.483Z,1006.14
2018-09-10T08:12:38.477Z,1006.12
2018-09-10T08:13:38.475Z,1006.06
2018-09-10T08:14:38.473Z,1006.10
2018-09-10T08:15:38.469Z,1006.10
2018-09-10T08:16:38.569Z,1006.15
2018-09-10T08:17:38.467Z,1006.15
2018-09-10T08:18:38.465Z,1006.14
2018-09-10T08:19:38.470Z,1006.16
2018-09-10T08:20:38.469Z,1006.23
2018-09-10T08:21:38.468Z,1006.23
2018-09-10T08:22:38.461Z,1006.28
2018-09-10T08:23:38.462Z,1006.32
2018-09-10T08:24:38.469Z,1006.39
2018-09-10T08:25:38.463Z,1006.38
2018-09-10T08:26:38.470Z,1006.37
2018-09-10T08:27:38.470Z,1006.36
2018-09-10T08:29:38.466Z,1006.41
2018-09-10T08:30:38.468Z,1006.42
2018-09-10T08:31:38.475Z,1006.41
2018-09-10T08:32:38.470Z,1006.40
2018-09-10T08:33:38.468Z,1006.43
2018-09-10T08:34:38.469Z,1006.43
2018-09-10T08:35:38.471Z,1006.38
2018-09-10T08:36:38.472Z,1006.39
2018-09-10T08:37:38.676Z,1006.43
2018-09-10T08:38:38.474Z,1006.47
2018-09-10T08:39:38.475Z,1006.44
2018-09-10T08:40:38.477Z,1006.47
2018-09-10T08:41:38.483Z,1006.52
2018-09-10T08:42:38.526Z,1006.46
2018-09-10T08:43:38.480Z,1006.46
2018-09-10T08:44:38.481Z,1006.49
2018-09-10T08:45:38.483Z,1006.51
2018-09-10T08:46:38.483Z,1006.55
2018-09-10T08:47:38.484Z,1006.57
2018-09-10T08:48:38.486Z,1006.55
2018-09-10T08:49:38.496Z,1006.54
2018-09-10T08:50:38.496Z,1006.53
2018-09-10T08:51:38.492Z,1006.55
2018-09-10T08:52:38.494Z,1006.57
2018-09-10T08:53:38.503Z,1006.56
2018-09-10T08:54:38.691Z,1006.58
2018-09-10T08:55:38.697Z,1006.66
2018-09-10T08:56:38.500Z,1006.58
2018-09-10T08:57:38.504Z,1006.60
2018-09-10T08:58:38.510Z,1006.61
2018-09-10T08:59:38.509Z,1006.58
2018-09-10T09:00:38.510Z,1006.59
2018-09-10T09:01:38.512Z,1006.61
2018-09-10T09:02:38.512Z,1006.61
2018-09-10T09:03:38.515Z,1006.65
2018-09-10T09:04:38.516Z,1006.62
2018-09-10T09:05:38.518Z,1006.66
2018-09-10T09:06:38.518Z,1006.63
2018-09-10T09:07:38.518Z,1006.65
2018-09-10T09:08:38.520Z,1006.61
2018-09-10T09:09:38.521Z,1006.64
2018-09-10T09:10:38.525Z,1006.63
2018-09-10T09:11:38.521Z,1006.60
2018-09-10T09:12:38.521Z,1006.66
2018-09-10T09:13:38.521Z,1006.63
2018-09-10T09:14:38.521Z,1006.61
2018-09-10T09:15:38.520Z,1006.59
2018-09-10T09:16:38.522Z,1006.55
2018-09-10T09:17:38.523Z,1006.53
2018-09-10T09:18:38.522Z,1006.56
2018-09-10T09:19:38.521Z,1006.60
2018-09-10T09:20:38.523Z,1006.55
2018-09-10T09:21:38.523Z,1006.55
2018-09-10T09:22:38.524Z,1006.51
2018-09-10T09:23:38.654Z,1006.55
2018-09-10T09:24:38.736Z,1006.60
2018-09-10T09:25:38.527Z,1006.57
2018-09-10T09:26:38.529Z,1006.60
2018-09-10T09:27:38.530Z,1006.67
2018-09-10T09:28:38.535Z,1006.68
2018-09-10T09:29:38.558Z,1006.69
2018-09-10T09:30:38.533Z,1006.73
2018-09-10T09:31:38.533Z,1006.75
2018-09-10T09:32:38.537Z,1006.75
2018-09-10T09:33:38.537Z,1006.73
2018-09-10T09:34:38.541Z,1006.72
2018-09-10T09:35:38.538Z,1006.70
2018-09-10T09:36:38.540Z,1006.67
2018-09-10T09:37:38.544Z,1006.69
2018-09-10T09:38:38.542Z,1006.67
2018-09-10T09:39:38.544Z,1006.70
2018-09-10T09:40:38.549Z,1006.73
2018-09-10T09:41:38.547Z,1006.73
2018-09-10T09:42:38.549Z,1006.74
2018-09-10T09:43:38.551Z,1006.70
2018-09-10T09:44:38.552Z,1006.66
2018-09-10T09:45:38.558Z,1006.72
2018-09-10T09:46:38.557Z,1006.67
2018-09-10T09:47:38.565Z,1006.70
2018-09-10T09:48:38.565Z,1006.67
2018-09-10T09:49:38.569Z,1006.64
2018-09-10T09:50:38.573Z,1006.57
2018-09-10T09:51:38.580Z,1006.55
2018-09-10T09:52:38.581Z,1006.59
2018-09-10T09:53:38.588Z,1006.62
2018-09-10T09:54:38.592Z,1006.68
2018-09-10T09:55:38.595Z,1006.72
2018-09-10T09:56:38.640Z,1006.71
2018-09-10T09:57:38.606Z,1006.78
2018-09-10T09:58:38.612Z,1006.73
2018-09-10T09:59:38.619Z,1006.73
2018-09-10T10:00:38.625Z,1006.81
2018-09-10T10:01:38.628Z,1006.82
2018-09-10T10:02:38.630Z,1006.82
2018-09-10T10:03:38.635Z,1006.82
2018-09-10T10:04:38.753Z,1006.81
2018-09-10T10:05:38.649Z,1006.89
2018-09-10T10:06:38.652Z,1006.88
2018-09-10T10:07:38.658Z,1006.89
2018-09-10T10:08:38.667Z,1006.90
2018-09-10T10:09:38.671Z,1006.84
2018-09-10T10:10:38.678Z,1006.83
2018-09-10T10:11:38.778Z,1006.80
2018-09-10T10:12:38.692Z,1006.86
2018-09-10T10:13:38.699Z,1006.79
2018-09-10T10:14:38.714Z,1006.76
2018-09-10T10:15:38.719Z,1006.78
2018-09-10T10:16:38.722Z,1006.73
2018-09-10T10:17:38.728Z,1006.74
2018-09-10T10:18:38.733Z,1006.73
2018-09-10T10:19:38.743Z,1006.74
2018-09-10T10:20:38.898Z,1006.71
2018-09-10T10:21:38.757Z,1006.75
2018-09-10T10:22:38.760Z,1006.70
2018-09-10T10:23:38.769Z,1006.67
2018-09-10T10:24:38.771Z,1006.60
2018-09-10T10:25:38.776Z,1006.65
2018-09-10T10:26:38.786Z,1006.67
2018-09-10T10:27:38.988Z,1006.68
2018-09-10T10:28:38.792Z,1006.70
2018-09-10T10:29:38.798Z,1006.66
2018-09-10T10:30:38.856Z,1006.66
2018-09-10T10:31:38.807Z,1006.64
2018-09-10T10:32:38.813Z,1006.64
2018-09-10T10:33:38.818Z,1006.65
2018-09-10T10:34:39.021Z,1006.68
2018-09-10T10:35:39.027Z,1006.73
2018-09-10T10:36:38.826Z,1006.69
2018-09-10T10:37:38.829Z,1006.71
2018-09-10T10:38:38.832Z,1006.74
2018-09-10T10:39:38.835Z,1006.80
2018-09-10T10:41:38.841Z,1006.83
2018-09-10T10:42:38.844Z,1006.83
2018-09-10T10:43:38.842Z,1006.81
2018-09-10T10:44:38.844Z,1006.80
2018-09-10T10:45:38.845Z,1006.81
2018-09-10T10:46:38.849Z,1006.86
2018-09-10T10:47:38.846Z,1006.83
2018-09-10T10:48:38.851Z,1006.82
2018-09-10T10:49:38.851Z,1006.78
2018-09-10T10:50:38.851Z,1006.77
2018-09-10T10:51:38.854Z,1006.77
2018-09-10T10:52:38.855Z,1006.74
2018-09-10T10:53:38.878Z,1006.75
2018-09-10T10:54:38.853Z,1006.79
2018-09-10T10:55:38.856Z,1006.77
2018-09-10T10:56:38.856Z,1006.77
2018-09-10T10:57:38.860Z,1006.80
2018-09-10T10:58:38.861Z,1006.81
2018-09-10T10:59:38.859Z,1006.81
2018-09-10T11:00:39.060Z,1006.82
2018-09-10T11:01:38.859Z,1006.85
2018-09-10T11:02:38.864Z,1006.81
2018-09-10T11:03:38.859Z,1006.85
2018-09-10T11:04:38.859Z,1006.81
2018-09-10T11:05:38.865Z,1006.88
2018-09-10T11:06:38.865Z,1006.80
2018-09-10T11:07:38.859Z,1006.81
2018-09-10T11:08:38.859Z,1006.80
2018-09-10T11:09:39.064Z,1006.80
2018-09-10T11:10:38.861Z,1006.88
2018-09-10T11:11:39.069Z,1006.83
2018-09-10T11:12:38.861Z,1006.82
2018-09-10T11:13:38.863Z,1006.85
2018-09-10T11:14:38.863Z,1006.84
2018-09-10T11:16:38.929Z,1006.88
2018-09-10T11:17:38.862Z,1006.87
2018-09-10T11:18:38.862Z,1006.92
2018-09-10T11:19:38.863Z,1006.92
2018-09-10T11:20:38.868Z,1006.92
2018-09-10T11:21:38.865Z,1006.92
2018-09-10T11:22:38.866Z,1006.89
2018-09-10T11:23:39.075Z,1006.91
2018-09-10T11:24:38.875Z,1006.91
2018-09-10T11:25:38.871Z,1006.95
2018-09-10T11:26:38.873Z,1006.90
2018-09-10T11:27:38.933Z,1006.86
2018-09-10T11:28:38.881Z,1006.88
2018-09-10T11:29:38.880Z,1006.86
2018-09-10T11:30:38.881Z,1006.84
2018-09-10T11:31:38.884Z,1006.85
2018-09-10T11:32:38.887Z,1006.85
2018-09-10T11:33:38.890Z,1006.81
2018-09-10T11:34:38.936Z,1006.77
2018-09-10T11:35:38.896Z,1006.72
2018-09-10T11:36:38.898Z,1006.72
2018-09-10T11:37:38.903Z,1006.76
2018-09-10T11:38:38.908Z,1006.71
2018-09-10T11:39:38.904Z,1006.68
2018-09-10T11:40:38.910Z,1006.69
2018-09-10T11:41:38.914Z,1006.70
2018-09-10T11:42:38.914Z,1006.74
2018-09-10T11:43:38.918Z,1006.74
2018-09-10T11:44:38.922Z,1006.75
2018-09-10T11:45:38.924Z,1006.74
2018-09-10T11:46:39.028Z,1006.71
2018-09-10T11:47:38.935Z,1006.69
2018-09-10T11:48:38.935Z,1006.70
2018-09-10T11:49:38.938Z,1006.71
2018-09-10T11:50:38.941Z,1006.73
2018-09-10T11:51:38.946Z,1006.68
2018-09-10T11:52:38.961Z,1006.70
2018-09-10T11:53:38.956Z,1006.67
2018-09-10T11:54:38.958Z,1006.65
2018-09-10T11:55:39.036Z,1006.66
2018-09-10T11:56:38.966Z,1006.67
2018-09-10T11:57:38.974Z,1006.68
2018-09-10T11:58:38.976Z,1006.69
2018-09-10T11:59:38.982Z,1006.71
2018-09-10T12:00:38.987Z,1006.72
2018-09-10T12:01:39.056Z,1006.76
2018-09-10T12:02:39.247Z,1006.78
2018-09-10T12:03:39.004Z,1006.79
2018-09-10T12:04:39.016Z,1006.76
2018-09-10T12:05:39.017Z,1006.71
2018-09-10T12:06:39.020Z,1006.69
2018-09-10T12:07:39.031Z,1006.69
2018-09-10T12:08:39.033Z,1006.67
2018-09-10T12:09:39.040Z,1006.61
2018-09-10T12:10:39.049Z,1006.66
2018-09-10T12:11:39.050Z,1006.62
2018-09-10T12:12:39.056Z,1006.69
2018-09-10T12:13:39.139Z,1006.70
2018-09-10T12:14:39.071Z,1006.64
2018-09-10T12:15:39.073Z,1006.69
2018-09-10T12:16:39.084Z,1006.74
2018-09-10T12:17:39.292Z,1006.73
2018-09-10T12:18:39.091Z,1006.76
2018-09-10T12:19:39.093Z,1006.78
2018-09-10T12:20:39.099Z,1006.83
2018-09-10T12:21:39.275Z,1006.86
2018-09-10T12:22:39.108Z,1006.84
2018-09-10T12:23:39.114Z,1006.82
2018-09-10T12:24:39.117Z,1006.88
2018-09-10T12:25:39.123Z,1006.85
2018-09-10T12:26:39.199Z,1006.86
2018-09-10T12:27:39.135Z,1006.89
2018-09-10T12:28:39.137Z,1006.86
2018-09-10T12:29:39.138Z,1006.85
2018-09-10T12:30:39.144Z,1006.94
2018-09-10T12:31:39.348Z,1006.92